ノヴォシビルスク の空港の天気 - METARとTAF

トルマチェヴォ空港(ノヴォシビルスク) ( UNNT / OVB ) - ロシア ノヴォシビルスク
飛行場実況気象(Metar)
観測時間12/10 11:00 OMST (12/10 05:00 UTC)
風向・風速静穏 0m/s
視程5000m
天気現象もや
なし
気温-23℃
湿度76%
気圧1032hPa
METARUNNT 100500Z 00000MPS 5000 BR NSC M23/M26 Q1032 R25/810160 R16/810160 NOSIG RMK QFE764/1019
過去の天気等 Google飛行場航空写真 Wunderground天気予報

過去48時間のMETAR

飛行場予報(TAF)
発表時間: 12/10 08:00 OMST (12/10 02:00 UTC)
予報対象時間: 10日9時 OMST ~ 11日9時 OMST
風向・風速南南東 3m/s
視程5000m
天気現象
なし
10日21時 OMST ~ 11日9時 OMST に一時的に
視程1500m
天気現象煙 もや
TAF UNNT 100200Z 1003/1103 16003MPS 5000 FU NSC
TEMPO 1015/1103 1500 FU BR